Jerome, FL (34141)

8:01 PM EDT on September 30, 2016 (GMT -0400)
Port of the Islands | | Change Station

Elev 0 ft 25.95 °N, 81.51 °W | Updated 24 seconds ago

Mostly Cloudy
Mostly Cloudy
81.3 °F
Feels Like 86 °F
N
3.0
Wind Variable Wind from NNE

Today
High -- | Low -- °F
--% Chance of Precip.
Yesterday
High -- | Low -- °F
Precip. -- in
Pressure 29.99 in
Visibility 10.0 miles
Clouds Mostly Cloudy 2800 ft
Heat Index 86 °F
Dew Point 73 °F
Humidity 76%
Rainfall 0.00 in
Snow Depth Not available.
7:17 AM 7:12 PM
New Moon, 0% visible
METAR KAPF 302353Z 12007KT 10SM VCTS BKN028 28/22 A3000 RMK AO2 TSB39E53 SLP156 T02830222 10317 20283 53011
Pressure 29.99 in
Visibility 10.0 miles
Clouds Mostly Cloudy 2800 ft
Heat Index 86 °F
Dew Point 73 °F
Humidity 76%
Rainfall 0.00 in
Snow Depth Not available.
7:17 AM 7:12 PM
New Moon, 0% visible
METAR KAPF 302353Z 12007KT 10SM VCTS BKN028 28/22 A3000 RMK AO2 TSB39E53 SLP156 T02830222 10317 20283 53011

10-Day Weather Forecast

Almanac

Astronomy

Sep. 30, 2016 Rise Set
Actual Time
Civil Twilight
Nautical Twilight
Astronomical Twilight
Moon
Length of Visible Light
Length of Day
Tomorrow will be .
, % of the Moon is Illuminated

Today's Extremes

State Highs State Lows

Community

WunderPhotos

Upload Photos

1,942,829 photos uploaded!

WunderBlog® & News

Nearby

Air Quality

  Air Quality AQ Index Pollutant
Not available.

Snow Depth

Station Depth Elevation

Earthquake Activity

City Distance Mag. Time & Date
Minimum magnitude displayed is 2.5.

Coastal Water Temperatures

Place Temperature

Stations

Nearby Weather Stations

Station Location Temp. Windchill Dew Point Humidity Wind Precip. Elev Updated Type
                   

Watches & Warnings

There are currently no watches in effect.